Time;durP1;ratioP1;P1;durP2;ratioP2;P2;SDS_P1;SDS_P2;PMS_P1;PMS_P2;Temp;Humidity;BMP_temperature;BMP_pressure;BME280_temperature;BME280_humidity;BME280_pressure;Samples;Min_cycle;Max_cycle;Signal;HPM_P1;HPM_P2
2023/04/17 00:02:09;;;;;;;;;;;;;;;21.29;41.75;100554.17;103233;1295;62152;-84
2023/04/17 00:04:36;;;;;;;;;;;;;;;21.28;41.83;100557.95;103861;1288;76322;-83
2023/04/17 00:07:02;;;;;;;;;;;;;;;21.28;41.70;100561.69;103968;1283;63153;-83
2023/04/17 00:09:30;;;;;;;;;;;;;;;21.28;41.68;100566.73;103845;1288;62457;-83
2023/04/17 00:11:56;;;;;;;;;;;;;;;21.28;41.71;100564.05;103925;1288;72290;-84
2023/04/17 00:14:22;;;;;;;;;;;;;;;21.28;41.77;100572.28;103713;1288;62159;-83
2023/04/17 00:16:47;;;;;;;;;;;;;;;21.28;41.78;100570.86;103762;1288;62199;-83
2023/04/17 00:19:13;;;;;;;;;;;;;;;21.28;41.77;100573.20;103763;1284;62939;-84
2023/04/17 00:21:38;;;;;;;;;;;;;;;21.27;41.75;100574.64;103776;1285;62174;-83
2023/04/17 00:24:05;;;;;;;;;;;;;;;21.28;41.79;100578.58;103832;1284;62670;-83
2023/04/17 00:26:33;;;;;;;;;;;;;;;21.27;41.64;100573.42;103846;1288;75573;-83
2023/04/17 00:28:59;;;;;;;;;;;;;;;21.27;41.69;100572.52;103795;1288;62143;-83
2023/04/17 00:31:26;;;;;;;;;;;;;;;21.27;41.79;100570.38;103953;1288;62198;-84
2023/04/17 00:33:51;;;;;;;;;;;;;;;21.26;41.72;100571.33;103794;1288;62126;-83
2023/04/17 00:36:17;;;;;;;;;;;;;;;21.26;41.72;100572.57;103860;1286;62583;-83
2023/04/17 00:38:43;;;;;;;;;;;;;;;21.26;41.67;100572.40;103919;1285;62196;-83
2023/04/17 00:41:08;;;;;;;;;;;;;;;21.26;41.78;100574.39;103846;1288;62200;-83
2023/04/17 00:43:33;;;;;;;;;;;;;;;21.25;41.74;100577.10;103886;1288;62206;-84
2023/04/17 00:45:59;;;;;;;;;;;;;;;21.26;41.73;100577.09;103752;1289;62270;-84
2023/04/17 00:48:25;;;;;;;;;;;;;;;21.25;41.76;100577.81;103909;1287;62171;-84
2023/04/17 00:50:51;;;;;;;;;;;;;;;21.25;41.66;100572.86;103872;1289;62258;-84
2023/04/17 00:53:16;;;;;;;;;;;;;;;21.25;41.77;100574.80;103969;1288;62193;-84
2023/04/17 00:55:42;;;;;;;;;;;;;;;21.25;41.69;100576.59;103917;1289;63908;-84
2023/04/17 00:58:07;;;;;;;;;;;;;;;21.25;41.73;100574.80;103822;1287;62133;-84
2023/04/17 01:00:33;;;;;;;;;;;;;;;21.24;41.69;100576.48;103793;1288;62081;-81
2023/04/17 01:02:59;;;;;;;;;;;;;;;21.25;41.72;100580.01;104006;1288;62750;-84
2023/04/17 01:05:24;;;;;;;;;;;;;;;21.24;41.83;100577.52;103763;1289;62583;-84
2023/04/17 01:07:50;;;;;;;;;;;;;;;21.24;41.74;100578.98;103967;1283;62197;-84
2023/04/17 01:10:15;;;;;;;;;;;;;;;21.24;41.78;100577.75;104460;1288;62232;-83
2023/04/17 01:12:45;;;;;;;;;;;;;;;21.24;41.88;100577.39;103963;1285;76144;-84
2023/04/17 01:15:12;;;;;;;;;;;;;;;21.24;41.68;100579.52;103940;1283;62088;-84
2023/04/17 01:17:37;;;;;;;;;;;;;;;21.24;41.85;100581.89;103804;1286;62267;-84
2023/04/17 01:20:06;;;;;;;;;;;;;;;21.24;41.73;100588.87;103952;1285;62194;-84
2023/04/17 01:22:32;;;;;;;;;;;;;;;21.24;41.82;100592.06;103997;1288;75241;-84
2023/04/17 01:24:59;;;;;;;;;;;;;;;21.24;41.76;100595.14;103877;1283;62217;-84
2023/04/17 01:27:25;;;;;;;;;;;;;;;21.24;41.69;100593.52;103881;1288;62051;-83
2023/04/17 01:29:50;;;;;;;;;;;;;;;21.23;41.75;100589.83;103794;1288;62245;-84
2023/04/17 01:32:18;;;;;;;;;;;;;;;21.23;41.77;100585.70;103834;1288;62620;-84
2023/04/17 01:34:43;;;;;;;;;;;;;;;21.23;41.83;100583.39;103791;1285;62067;-83
2023/04/17 01:37:08;;;;;;;;;;;;;;;21.23;41.68;100580.36;103843;1288;62189;-83
2023/04/17 01:39:34;;;;;;;;;;;;;;;21.23;41.63;100579.08;103862;1289;62293;-83
2023/04/17 01:42:00;;;;;;;;;;;;;;;21.22;41.62;100578.77;103762;1286;62798;-84
2023/04/17 01:44:26;;;;;;;;;;;;;;;21.23;41.68;100575.89;103763;1288;75278;-84
2023/04/17 01:46:52;;;;;;;;;;;;;;;21.22;41.76;100570.77;103819;1288;63264;-83
2023/04/17 01:49:17;;;;;;;;;;;;;;;21.22;41.75;100570.96;103771;1286;62254;-83
2023/04/17 01:51:43;;;;;;;;;;;;;;;21.21;41.72;100568.13;103908;1288;62103;-84
2023/04/17 01:54:08;;;;;;;;;;;;;;;21.21;41.82;100570.48;103761;1283;62654;-83
2023/04/17 01:56:34;;;;;;;;;;;;;;;21.21;41.81;100568.88;103960;1288;62193;-84
2023/04/17 01:58:59;;;;;;;;;;;;;;;21.20;41.73;100566.59;103792;1289;62300;-84
2023/04/17 02:01:25;;;;;;;;;;;;;;;21.20;41.77;100564.25;103785;1288;62324;-83
2023/04/17 02:03:50;;;;;;;;;;;;;;;21.20;41.89;100566.23;103924;1286;62111;-84
2023/04/17 02:06:17;;;;;;;;;;;;;;;21.20;41.86;100567.65;103919;1285;62195;-84
2023/04/17 02:08:42;;;;;;;;;;;;;;;21.20;41.75;100568.21;103817;1289;62117;-84
2023/04/17 02:11:09;;;;;;;;;;;;;;;21.20;41.71;100570.93;103804;1288;62185;-83
2023/04/17 02:13:35;;;;;;;;;;;;;;;21.20;41.86;100565.02;103706;1288;62054;-83
2023/04/17 02:16:00;;;;;;;;;;;;;;;21.20;41.75;100565.56;103880;1288;62258;-83
2023/04/17 02:18:26;;;;;;;;;;;;;;;21.20;41.85;100563.59;103863;1288;62167;-84
2023/04/17 02:20:51;;;;;;;;;;;;;;;21.19;41.82;100565.05;103783;1288;60838;-84
2023/04/17 02:23:17;;;;;;;;;;;;;;;21.19;41.72;100562.55;103920;1283;62181;-84
2023/04/17 02:25:43;;;;;;;;;;;;;;;21.19;41.81;100558.09;103715;1288;62126;-83
2023/04/17 02:28:09;;;;;;;;;;;;;;;21.19;41.79;100555.40;103715;1288;71474;-83
2023/04/17 02:30:35;;;;;;;;;;;;;;;21.19;41.81;100559.90;103788;1288;62249;-84
2023/04/17 02:33:00;;;;;;;;;;;;;;;21.18;41.76;100558.48;103980;1288;62216;-84
2023/04/17 02:35:28;;;;;;;;;;;;;;;21.19;41.70;100563.84;103783;1285;62900;-84
2023/04/17 02:37:53;;;;;;;;;;;;;;;21.18;41.78;100560.15;103765;1286;62200;-84
2023/04/17 02:40:19;;;;;;;;;;;;;;;21.18;41.60;100561.73;103829;1285;62110;-83
2023/04/17 02:42:44;;;;;;;;;;;;;;;21.18;41.83;100564.08;103636;1285;62142;-82
2023/04/17 02:45:10;;;;;;;;;;;;;;;21.18;41.79;100562.83;103774;1286;62467;-84
2023/04/17 02:47:36;;;;;;;;;;;;;;;21.18;41.78;100554.44;103761;1283;62245;-84
2023/04/17 02:50:01;;;;;;;;;;;;;;;21.17;41.69;100553.02;103760;1288;62151;-83
2023/04/17 02:52:28;;;;;;;;;;;;;;;21.17;41.68;100551.59;103703;1286;62853;-84
2023/04/17 02:54:53;;;;;;;;;;;;;;;21.17;41.78;100551.07;103858;1289;62245;-83
2023/04/17 02:57:19;;;;;;;;;;;;;;;21.17;41.78;100555.52;103773;1288;62206;-83
2023/04/17 02:59:45;;;;;;;;;;;;;;;21.17;41.79;100552.36;103806;1283;62195;-83
2023/04/17 03:02:13;;;;;;;;;;;;;;;21.17;41.68;100552.70;103727;1288;73555;-84
2023/04/17 03:04:39;;;;;;;;;;;;;;;21.17;41.79;100551.11;103824;1285;75516;-83
2023/04/17 03:07:05;;;;;;;;;;;;;;;21.17;41.85;100550.94;103906;1288;62165;-83
2023/04/17 03:09:33;;;;;;;;;;;;;;;21.16;41.70;100550.42;103777;1285;62108;-83
2023/04/17 03:11:59;;;;;;;;;;;;;;;21.16;41.89;100551.12;103880;1284;72536;-84
2023/04/17 03:14:24;;;;;;;;;;;;;;;21.16;41.79;100547.02;103913;1285;62378;-84
2023/04/17 03:16:50;;;;;;;;;;;;;;;21.16;41.78;100551.70;103943;1285;62199;-82
2023/04/17 03:19:16;;;;;;;;;;;;;;;21.16;41.74;100551.16;103895;1288;62603;-83
2023/04/17 03:21:42;;;;;;;;;;;;;;;21.16;41.70;100553.68;103768;1283;62152;-84
2023/04/17 03:24:10;;;;;;;;;;;;;;;21.16;41.77;100548.69;103787;1289;62184;-83
2023/04/17 03:26:35;;;;;;;;;;;;;;;21.15;41.73;100548.88;103815;1289;76335;-83
2023/04/17 03:29:01;;;;;;;;;;;;;;;21.15;41.79;100548.56;104134;1283;62261;-83
2023/04/17 03:31:27;;;;;;;;;;;;;;;21.15;41.74;100545.15;103959;1285;62072;-83
2023/04/17 03:33:52;;;;;;;;;;;;;;;21.15;41.76;100547.09;103888;1288;62201;-83
2023/04/17 03:36:18;;;;;;;;;;;;;;;21.15;41.76;100552.66;103893;1285;62271;-84
2023/04/17 03:38:43;;;;;;;;;;;;;;;21.15;41.85;100553.02;103821;1289;75463;-83
2023/04/17 03:41:10;;;;;;;;;;;;;;;21.15;41.85;100555.02;103940;1288;63252;-84
2023/04/17 03:43:35;;;;;;;;;;;;;;;21.14;41.60;100560.76;103971;1286;62172;-84
2023/04/17 03:46:01;;;;;;;;;;;;;;;21.15;41.75;100565.56;103782;1283;62616;-84
2023/04/17 03:48:27;;;;;;;;;;;;;;;21.15;41.71;100569.89;103892;1286;62145;-84
2023/04/17 03:50:52;;;;;;;;;;;;;;;21.14;41.75;100573.47;103981;1288;62242;-83
2023/04/17 03:53:18;;;;;;;;;;;;;;;21.15;41.74;100579.73;103960;1288;63162;-84
2023/04/17 03:55:44;;;;;;;;;;;;;;;21.14;41.87;100584.94;103932;1285;62194;-84
2023/04/17 03:58:10;;;;;;;;;;;;;;;21.14;41.68;100593.34;103856;1288;63216;-84
2023/04/17 04:00:36;;;;;;;;;;;;;;;21.14;41.81;100599.98;103771;1289;62136;-83
2023/04/17 04:03:02;;;;;;;;;;;;;;;21.14;41.76;100603.90;103974;1288;62632;-83
2023/04/17 04:05:28;;;;;;;;;;;;;;;21.14;41.74;100605.17;103945;1283;62444;-84
2023/04/17 04:07:53;;;;;;;;;;;;;;;21.14;41.83;100608.36;103784;1283;62335;-84
2023/04/17 04:10:20;;;;;;;;;;;;;;;21.14;41.72;100600.89;103813;1283;62193;-84
2023/04/17 04:12:46;;;;;;;;;;;;;;;21.14;41.65;100593.38;103831;1288;75159;-84
2023/04/17 04:15:11;;;;;;;;;;;;;;;21.14;41.71;100586.22;103882;1288;62181;-84
2023/04/17 04:17:37;;;;;;;;;;;;;;;21.14;41.79;100588.20;103908;1285;62194;-84
2023/04/17 04:20:03;;;;;;;;;;;;;;;21.14;41.76;100595.55;103796;1286;62165;-84
2023/04/17 04:22:29;;;;;;;;;;;;;;;21.13;41.84;100587.52;103975;1286;62610;-83
2023/04/17 04:24:55;;;;;;;;;;;;;;;21.13;41.86;100577.48;103818;1288;62145;-84
2023/04/17 04:27:21;;;;;;;;;;;;;;;21.13;41.79;100580.17;103834;1283;62809;-84
2023/04/17 04:29:48;;;;;;;;;;;;;;;21.13;41.71;100586.64;103781;1288;62105;-83
2023/04/17 04:32:14;;;;;;;;;;;;;;;21.13;41.66;100592.01;103796;1285;73464;-83
2023/04/17 04:34:40;;;;;;;;;;;;;;;21.13;41.64;100587.02;103847;1286;62127;-83
2023/04/17 04:37:07;;;;;;;;;;;;;;;21.13;41.65;100588.81;103786;1286;62253;-83
2023/04/17 04:39:33;;;;;;;;;;;;;;;21.13;41.74;100586.47;103827;1283;62206;-83
2023/04/17 04:42:04;;;;;;;;;;;;;;;21.13;41.82;100588.11;103926;1288;62181;-83
2023/04/17 04:44:30;;;;;;;;;;;;;;;21.13;41.79;100593.64;103748;1285;76435;-83
2023/04/17 04:46:55;;;;;;;;;;;;;;;21.13;41.63;100584.15;103740;1288;62553;-84
2023/04/17 04:49:21;;;;;;;;;;;;;;;21.13;41.79;100578.04;103726;1283;62542;-83
2023/04/17 04:51:46;;;;;;;;;;;;;;;21.13;41.72;100577.69;103814;1285;62165;-84
2023/04/17 04:54:12;;;;;;;;;;;;;;;21.13;41.68;100580.71;103769;1283;62121;-84
2023/04/17 04:56:38;;;;;;;;;;;;;;;21.12;41.81;100582.93;103880;1283;76276;-84
2023/04/17 04:59:04;;;;;;;;;;;;;;;21.13;41.85;100579.86;103989;1283;62784;-83
2023/04/17 05:01:29;;;;;;;;;;;;;;;21.12;41.76;100571.27;103824;1283;62251;-83
2023/04/17 05:03:55;;;;;;;;;;;;;;;21.13;41.72;100564.85;103693;1288;62192;-84
2023/04/17 05:06:21;;;;;;;;;;;;;;;21.13;41.76;100565.20;103904;1286;62198;-84
2023/04/17 05:08:47;;;;;;;;;;;;;;;21.12;41.81;100575.60;103799;1288;62197;-83
2023/04/17 05:11:13;;;;;;;;;;;;;;;21.13;41.73;100579.15;103908;1288;62216;-84
2023/04/17 05:13:38;;;;;;;;;;;;;;;21.12;41.65;100588.47;103956;1283;62744;-83
2023/04/17 05:16:05;;;;;;;;;;;;;;;21.12;41.85;100597.79;103778;1288;62133;-83
2023/04/17 05:18:30;;;;;;;;;;;;;;;21.13;41.73;100602.77;103743;1288;62197;-83
2023/04/17 05:20:56;;;;;;;;;;;;;;;21.12;41.68;100601.55;103731;1285;62177;-84
2023/04/17 05:23:21;;;;;;;;;;;;;;;21.12;41.73;100603.33;103734;1285;62232;-84
2023/04/17 05:25:48;;;;;;;;;;;;;;;21.12;41.78;100600.87;103757;1288;62123;-84
2023/04/17 05:28:13;;;;;;;;;;;;;;;21.12;41.69;100596.21;103846;1285;63356;-84
2023/04/17 05:30:39;;;;;;;;;;;;;;;21.12;41.75;100592.98;103826;1286;75285;-84
2023/04/17 05:33:05;;;;;;;;;;;;;;;21.12;41.83;100592.77;103971;1288;62219;-83
2023/04/17 05:35:30;;;;;;;;;;;;;;;21.12;41.75;100590.66;103817;1283;62101;-84
2023/04/17 05:37:56;;;;;;;;;;;;;;;21.12;41.62;100589.59;103800;1285;62359;-83
2023/04/17 05:40:22;;;;;;;;;;;;;;;21.12;41.80;100581.38;103780;1284;62207;-84
2023/04/17 05:42:48;;;;;;;;;;;;;;;21.12;41.71;100597.13;103813;1285;62207;-84
2023/04/17 05:45:13;;;;;;;;;;;;;;;21.12;41.65;100605.70;103806;1284;62187;-83
2023/04/17 05:47:39;;;;;;;;;;;;;;;21.12;41.68;100612.66;104323;1284;62616;-83
2023/04/17 05:50:05;;;;;;;;;;;;;;;21.12;41.79;100617.70;104241;1285;62171;-83
2023/04/17 05:52:31;;;;;;;;;;;;;;;21.12;41.68;100616.23;103925;1286;62282;-84
2023/04/17 05:54:58;;;;;;;;;;;;;;;21.12;41.78;100621.80;103811;1283;62224;-84
2023/04/17 05:57:23;;;;;;;;;;;;;;;21.12;41.65;100611.61;103824;1283;62137;-83
2023/04/17 05:59:49;;;;;;;;;;;;;;;21.12;41.86;100617.33;103800;1283;63147;-83
2023/04/17 06:02:15;;;;;;;;;;;;;;;21.12;41.61;100616.09;103733;1283;72558;-83
2023/04/17 06:04:41;;;;;;;;;;;;;;;21.12;41.73;100622.50;103749;1288;63187;-83
2023/04/17 06:07:07;;;;;;;;;;;;;;;21.12;41.77;100628.95;103773;1283;62223;-84
2023/04/17 06:09:33;;;;;;;;;;;;;;;21.12;41.66;100629.66;103760;1286;62160;-83
2023/04/17 06:11:58;;;;;;;;;;;;;;;21.12;41.74;100634.31;103832;1283;62615;-83
2023/04/17 06:14:24;;;;;;;;;;;;;;;21.12;41.74;100632.02;103742;1285;62264;-84
2023/04/17 06:16:49;;;;;;;;;;;;;;;21.12;41.60;100637.77;103839;1288;62127;-83
2023/04/17 06:19:15;;;;;;;;;;;;;;;21.12;41.79;100640.59;103935;1283;62192;-84
2023/04/17 06:21:40;;;;;;;;;;;;;;;21.11;41.66;100642.45;103904;1283;62178;-84
2023/04/17 06:24:06;;;;;;;;;;;;;;;21.11;41.61;100646.89;103891;1285;62197;-84
2023/04/17 06:26:31;;;;;;;;;;;;;;;21.12;41.66;100651.89;103744;1288;62188;-83
2023/04/17 06:28:57;;;;;;;;;;;;;;;21.11;41.66;100653.17;103731;1285;64303;-84
2023/04/17 06:31:24;;;;;;;;;;;;;;;21.11;41.71;100653.18;103870;1283;62069;-83
2023/04/17 06:33:50;;;;;;;;;;;;;;;21.11;41.75;100660.16;103944;1283;62631;-83
2023/04/17 06:36:16;;;;;;;;;;;;;;;21.11;41.75;100661.80;103909;1283;62091;-84
2023/04/17 06:38:41;;;;;;;;;;;;;;;21.10;41.66;100663.25;103870;1285;62157;-83
2023/04/17 06:41:08;;;;;;;;;;;;;;;21.10;41.65;100662.49;103876;1283;62204;-83
2023/04/17 06:43:33;;;;;;;;;;;;;;;21.10;41.68;100662.69;103947;1285;63640;-84
2023/04/17 06:45:59;;;;;;;;;;;;;;;21.10;41.73;100659.13;103833;1283;62529;-84
2023/04/17 06:48:24;;;;;;;;;;;;;;;21.10;41.74;100660.20;103757;1285;62194;-83
2023/04/17 06:50:50;;;;;;;;;;;;;;;21.10;41.61;100660.23;103740;1286;75510;-83
2023/04/17 06:53:15;;;;;;;;;;;;;;;21.10;41.69;100659.86;103937;1285;62091;-83
2023/04/17 06:55:41;;;;;;;;;;;;;;;21.10;41.72;100658.98;103931;1286;62204;-83
2023/04/17 06:58:07;;;;;;;;;;;;;;;21.10;41.69;100658.10;103881;1285;62182;-84
2023/04/17 07:00:32;;;;;;;;;;;;;;;21.10;41.64;100665.95;104033;1283;62136;-83
2023/04/17 07:02:58;;;;;;;;;;;;;;;21.10;41.60;100667.77;103935;1283;76240;-83
2023/04/17 07:05:23;;;;;;;;;;;;;;;21.09;41.52;100669.92;103506;1283;642511;-83
2023/04/17 07:07:50;;;;;;;;;;;;;;;21.10;41.69;100676.35;103839;1283;62165;-83
2023/04/17 07:10:18;;;;;;;;;;;;;;;21.09;41.70;100679.77;103814;1285;62222;-84
2023/04/17 07:12:43;;;;;;;;;;;;;;;21.09;41.70;100683.86;103869;1286;62165;-84
2023/04/17 07:15:09;;;;;;;;;;;;;;;21.09;41.59;100689.60;103882;1283;62113;-83
2023/04/17 07:17:36;;;;;;;;;;;;;;;21.09;41.59;100692.81;103845;1283;63434;-84
2023/04/17 07:20:01;;;;;;;;;;;;;;;21.09;41.63;100698.89;103918;1285;62110;-84
2023/04/17 07:22:27;;;;;;;;;;;;;;;21.10;41.78;100706.05;103895;1288;62862;-84
2023/04/17 07:24:53;;;;;;;;;;;;;;;21.10;41.64;100711.95;103896;1285;63227;-83
2023/04/17 07:27:18;;;;;;;;;;;;;;;21.09;41.55;100712.85;104061;1284;62156;-82
2023/04/17 07:29:46;;;;;;;;;;;;;;;21.10;41.54;100719.84;103899;1283;62190;-84
2023/04/17 07:32:12;;;;;;;;;;;;;;;21.10;41.56;100727.15;103953;1283;73454;-84
2023/04/17 07:34:40;;;;;;;;;;;;;;;21.09;41.66;100733.61;104004;1283;62576;-83
2023/04/17 07:37:06;;;;;;;;;;;;;;;21.09;41.74;100731.30;103852;1283;62108;-83
2023/04/17 07:39:31;;;;;;;;;;;;;;;21.09;41.62;100734.90;104016;1283;62191;-84
2023/04/17 07:41:56;;;;;;;;;;;;;;;21.09;41.74;100737.79;103879;1288;63238;-84
2023/04/17 07:44:23;;;;;;;;;;;;;;;21.09;41.72;100736.48;103990;1283;62161;-84
2023/04/17 07:46:48;;;;;;;;;;;;;;;21.09;41.61;100739.37;103869;1285;62529;-84
2023/04/17 07:49:14;;;;;;;;;;;;;;;21.08;41.68;100737.98;103843;1284;62124;-84
2023/04/17 07:51:40;;;;;;;;;;;;;;;21.08;41.59;100739.42;103854;1283;62170;-83
2023/04/17 07:54:06;;;;;;;;;;;;;;;21.08;41.62;100737.98;103790;1288;62101;-84
2023/04/17 07:56:33;;;;;;;;;;;;;;;21.09;41.65;100743.48;103841;1285;62209;-84
2023/04/17 07:58:59;;;;;;;;;;;;;;;21.09;41.64;100742.80;103896;1286;62305;-83
2023/04/17 08:01:25;;;;;;;;;;;;;;;21.08;41.68;100747.67;103818;1283;62070;-84
2023/04/17 08:03:51;;;;;;;;;;;;;;;21.08;41.74;100748.56;103991;1283;62196;-83
2023/04/17 08:06:18;;;;;;;;;;;;;;;21.09;41.72;100744.77;104014;1284;63066;-84
2023/04/17 08:08:46;;;;;;;;;;;;;;;21.08;41.71;100741.59;104346;1285;62162;-83
2023/04/17 08:11:13;;;;;;;;;;;;;;;21.08;41.59;100746.96;104032;1285;62035;-84
2023/04/17 08:13:38;;;;;;;;;;;;;;;21.08;41.56;100744.98;103882;1286;72511;-82
2023/04/17 08:16:04;;;;;;;;;;;;;;;21.08;41.70;100741.23;103860;1285;62692;-84
2023/04/17 08:18:31;;;;;;;;;;;;;;;21.08;41.59;100743.59;103961;1286;62101;-84
2023/04/17 08:20:56;;;;;;;;;;;;;;;21.08;41.60;100745.00;104026;1285;62183;-83
2023/04/17 08:23:22;;;;;;;;;;;;;;;21.08;41.71;100750.20;103968;1288;62191;-84
2023/04/17 08:25:47;;;;;;;;;;;;;;;21.07;41.53;100743.25;103891;1285;62225;-84
2023/04/17 08:28:13;;;;;;;;;;;;;;;21.07;41.57;100739.84;103827;1288;75969;-84
2023/04/17 08:30:39;;;;;;;;;;;;;;;21.08;41.78;100734.83;103982;1283;62194;-83
2023/04/17 08:33:05;;;;;;;;;;;;;;;21.07;41.73;100735.23;103937;1285;62198;-83
2023/04/17 08:35:31;;;;;;;;;;;;;;;21.07;41.60;100734.48;103874;1286;63641;-82
2023/04/17 08:37:58;;;;;;;;;;;;;;;21.07;41.64;100737.17;103844;1285;62262;-83
2023/04/17 08:40:25;;;;;;;;;;;;;;;21.07;41.65;100732.18;103848;1285;62185;-82
2023/04/17 08:42:51;;;;;;;;;;;;;;;21.07;41.57;100736.15;103973;1283;62207;-83
2023/04/17 08:45:17;;;;;;;;;;;;;;;21.07;41.58;100739.16;103879;1285;62797;-84
2023/04/17 08:47:42;;;;;;;;;;;;;;;21.06;41.62;100741.02;103913;1283;62121;-83
2023/04/17 08:50:11;;;;;;;;;;;;;;;21.06;41.57;100743.52;103993;1288;62099;-83
2023/04/17 08:52:38;;;;;;;;;;;;;;;21.06;41.57;100743.90;103868;1285;62136;-82
2023/04/17 08:55:05;;;;;;;;;;;;;;;21.06;41.52;100746.41;103888;1283;62188;-83
2023/04/17 08:57:30;;;;;;;;;;;;;;;21.06;41.59;100750.34;103890;1283;73291;-83
2023/04/17 08:59:56;;;;;;;;;;;;;;;21.06;41.67;100746.94;103864;1285;62893;-84
2023/04/17 09:02:22;;;;;;;;;;;;;;;21.06;41.68;100749.80;103832;1283;62166;-83
2023/04/17 09:04:47;;;;;;;;;;;;;;;21.05;41.53;100742.14;103900;1286;62213;-84
2023/04/17 09:07:14;;;;;;;;;;;;;;;21.05;41.71;100745.02;103928;1284;62164;-84
2023/04/17 09:09:52;;;;;;;;;;;;;;;21.05;41.57;100745.94;103772;1288;73415;-84
2023/04/17 09:12:22;;;;;;;;;;;;;;;21.05;41.56;100747.17;103904;1285;75169;-84
2023/04/17 09:14:47;;;;;;;;;;;;;;;21.04;41.63;100745.60;103785;1286;62209;-84
2023/04/17 09:17:14;;;;;;;;;;;;;;;21.05;41.62;100741.66;103913;1285;62451;-84
2023/04/17 09:19:58;;;;;;;;;;;;;;;21.05;41.63;100739.54;103785;1289;62140;-84
2023/04/17 09:22:24;;;;;;;;;;;;;;;21.05;41.55;100738.09;103834;1285;76104;-84
2023/04/17 09:24:50;;;;;;;;;;;;;;;21.04;41.62;100737.03;103964;1283;62094;-84
2023/04/17 09:27:25;;;;;;;;;;;;;;;21.04;41.70;100743.09;103855;1285;62232;-83
2023/04/17 09:29:58;;;;;;;;;;;;;;;21.05;41.63;100746.69;103849;1285;72283;-84
2023/04/17 09:32:25;;;;;;;;;;;;;;;21.04;41.54;100747.77;103880;1285;76304;-84
2023/04/17 09:34:52;;;;;;;;;;;;;;;21.04;41.67;100740.43;103869;1285;62175;-84
2023/04/17 09:37:18;;;;;;;;;;;;;;;21.04;41.69;100743.16;104010;1288;62153;-84
2023/04/17 09:39:59;;;;;;;;;;;;;;;21.04;41.59;100746.35;103827;1285;62705;-84
2023/04/17 09:42:25;;;;;;;;;;;;;;;21.03;41.60;100746.60;103975;1285;76108;-83
2023/04/17 09:44:50;;;;;;;;;;;;;;;21.03;41.59;100749.98;103841;1284;62162;-83
2023/04/17 09:47:17;;;;;;;;;;;;;;;21.03;41.57;100751.61;103758;1286;62284;-84
2023/04/17 09:49:51;;;;;;;;;;;;;;;21.04;41.75;100751.05;103943;1286;62261;-83
2023/04/17 09:52:22;;;;;;;;;;;;;;;21.03;41.56;100755.89;104010;1286;76285;-84
2023/04/17 09:54:50;;;;;;;;;;;;;;;21.02;41.56;100756.30;103896;1288;62105;-83
2023/04/17 09:57:15;;;;;;;;;;;;;;;21.03;41.68;100761.30;104019;1286;63263;-83
2023/04/17 09:59:44;;;;;;;;;;;;;;;21.03;41.74;100763.98;103723;1286;62705;-84
2023/04/17 10:02:11;;;;;;;;;;;;;;;21.03;41.68;100764.35;103906;1283;76361;-83
2023/04/17 10:04:38;;;;;;;;;;;;;;;21.02;41.54;100766.02;103816;1285;62020;-83
2023/04/17 10:07:04;;;;;;;;;;;;;;;21.02;41.66;100768.89;103929;1283;62191;-84
2023/04/17 10:09:29;;;;;;;;;;;;;;;21.01;41.53;100766.94;103897;1286;62199;-84
2023/04/17 10:11:55;;;;;;;;;;;;;;;21.02;41.70;100766.58;104032;1285;63192;-83
2023/04/17 10:14:29;;;;;;;;;;;;;;;21.01;41.65;100766.26;103875;1285;62111;-83
2023/04/17 10:16:54;;;;;;;;;;;;;;;21.00;41.63;100765.41;103762;1285;62558;-84
2023/04/17 10:19:30;;;;;;;;;;;;;;;21.01;41.76;100764.14;103830;1288;62194;-84
2023/04/17 10:22:14;;;;;;;;;;;;;;;21.00;41.58;100758.96;103805;1285;75168;-83
2023/04/17 10:24:42;;;;;;;;;;;;;;;21.00;41.62;100757.38;103951;1286;62028;-83
2023/04/17 10:27:23;;;;;;;;;;;;;;;21.00;41.71;100754.36;104291;1283;62175;-82
2023/04/17 10:29:55;;;;;;;;;;;;;;;21.00;41.61;100751.87;104065;1285;72500;-82
2023/04/17 10:32:23;;;;;;;;;;;;;;;21.00;41.75;100755.42;104017;1283;76061;-82
2023/04/17 10:34:48;;;;;;;;;;;;;;;21.00;41.76;100758.30;103857;1286;62078;-82
2023/04/17 10:37:14;;;;;;;;;;;;;;;21.00;41.71;100760.59;103807;1285;63391;-82
2023/04/17 10:40:01;;;;;;;;;;;;;;;20.99;41.75;100760.30;103972;1285;62052;-83
2023/04/17 10:42:28;;;;;;;;;;;;;;;21.00;41.72;100757.77;103972;1285;76496;-83
2023/04/17 10:44:57;;;;;;;;;;;;;;;20.99;41.73;100757.08;103827;1285;62187;-84
2023/04/17 10:47:28;;;;;;;;;;;;;;;20.99;41.71;100763.50;104000;1288;62136;-83
2023/04/17 10:49:54;;;;;;;;;;;;;;;20.99;41.71;100761.92;103776;1283;72340;-83
2023/04/17 10:52:39;;;;;;;;;;;;;;;20.99;41.73;100760.48;103760;1285;62220;-83
2023/04/17 10:55:12;;;;;;;;;;;;;;;21.00;41.68;100759.04;103969;1284;62594;-84
2023/04/17 10:58:14;;;;;;;;;;;;;;;20.99;41.79;100759.79;103960;1286;62200;-84
2023/04/17 11:00:49;;;;;;;;;;;;;;;20.99;41.76;100762.64;103276;1294;73224;-83
2023/04/17 11:03:15;;;;;;;;;;;;;;;20.98;41.72;100755.71;103269;1291;76262;-83
2023/04/17 11:05:44;;;;;;;;;;;;;;;20.99;41.78;100758.17;103171;1291;63543;-83
2023/04/17 11:08:09;;;;;;;;;;;;;;;20.98;41.69;100757.31;103252;1291;62424;-84
2023/04/17 11:10:36;;;;;;;;;;;;;;;20.98;41.82;100757.15;103212;1289;63244;-84
2023/04/17 11:13:01;;;;;;;;;;;;;;;20.99;41.64;100754.09;103335;1291;63353;-83
2023/04/17 11:15:28;;;;;;;;;;;;;;;20.98;41.71;100748.02;103161;1292;62287;-83
2023/04/17 11:17:54;;;;;;;;;;;;;;;20.98;41.83;100739.65;103224;1291;63362;-83
2023/04/17 11:20:20;;;;;;;;;;;;;;;20.98;41.59;100733.00;103171;1292;62286;-84
2023/04/17 11:22:45;;;;;;;;;;;;;;;20.98;41.75;100731.79;103139;1294;62140;-83
2023/04/17 11:25:21;;;;;;;;;;;;;;;20.98;41.72;100728.21;103391;1291;62226;-84
2023/04/17 11:27:49;;;;;;;;;;;;;;;20.98;41.88;100733.05;103193;1291;62018;-83
2023/04/17 11:30:23;;;;;;;;;;;;;;;20.97;41.71;100734.73;103193;1291;62312;-84
2023/04/17 11:32:48;;;;;;;;;;;;;;;20.97;41.74;100727.94;103214;1289;73462;-83
2023/04/17 11:35:14;;;;;;;;;;;;;;;20.97;41.73;100728.45;103529;1286;62290;-84
2023/04/17 11:37:59;;;;;;;;;;;;;;;20.96;41.77;100721.88;103925;1285;62137;-84
2023/04/17 11:40:25;;;;;;;;;;;;;;;20.96;41.84;100721.69;103884;1283;62233;-83
2023/04/17 11:42:50;;;;;;;;;;;;;;;20.96;41.71;100720.98;103783;1284;62255;-84
2023/04/17 11:45:18;;;;;;;;;;;;;;;20.97;41.60;100718.11;103927;1286;62184;-84
2023/04/17 11:47:45;;;;;;;;;;;;;;;20.97;41.73;100721.15;103999;1285;62069;-83
2023/04/17 11:50:14;;;;;;;;;;;;;;;20.96;41.65;100720.66;104020;1285;62193;-84
2023/04/17 11:52:40;;;;;;;;;;;;;;;20.97;41.76;100722.05;103942;1287;73443;-84
2023/04/17 11:55:07;;;;;;;;;;;;;;;20.96;41.84;100720.45;103988;1287;62333;-83
2023/04/17 11:57:41;;;;;;;;;;;;;;;20.96;41.85;100718.00;103792;1283;63352;-84
2023/04/17 12:00:13;;;;;;;;;;;;;;;20.95;41.77;100720.70;103824;1286;62191;-84
2023/04/17 12:02:38;;;;;;;;;;;;;;;20.95;41.84;100718.73;103734;1286;72494;-84
2023/04/17 12:05:13;;;;;;;;;;;;;;;20.95;41.73;100717.33;103891;1288;62293;-84
2023/04/17 12:07:39;;;;;;;;;;;;;;;20.95;41.72;100707.84;103794;1288;62198;-83
2023/04/17 12:10:06;;;;;;;;;;;;;;;20.95;41.82;100708.38;103833;1285;62213;-83
2023/04/17 12:12:32;;;;;;;;;;;;;;;20.94;41.83;100703.78;103958;1288;73460;-84
2023/04/17 12:14:59;;;;;;;;;;;;;;;20.94;41.75;100704.68;103916;1285;62809;-84
2023/04/17 12:17:26;;;;;;;;;;;;;;;20.94;41.75;100701.81;103934;1285;62184;-83
2023/04/17 12:19:53;;;;;;;;;;;;;;;20.94;41.86;100701.64;103956;1285;62096;-84
2023/04/17 12:22:18;;;;;;;;;;;;;;;20.93;41.81;100700.58;103802;1286;62133;-84
2023/04/17 12:24:44;;;;;;;;;;;;;;;20.93;41.78;100703.66;103804;1283;62193;-83